To NAV CANADA Home Page Login to a new session Search on AWWS site Disclaimer Vers la page française équivalente Tips FAQ What's new on the site To the Forecasts and Observations / NOTAM section To "File a Flight Plan" website Publications and other links Update of the User's profile FIC Telephone Numbers My Weather Data Folder Route Weather Data Regional Weather Data Local Weather Data To the Forecasts and Observations / NOTAM section
Request Generated 10/19/2018 at 16:29:17 UTC . Weather information available at that time is displayed.

METAR/TAF

LANSDOWNE HOUSE/ON    (show WxCam)

METAR CYLH 191600Z AUTO 28006KT 9SM FEW230 SCT250 05/02 A2939 RMK SLP966=
METAR CYLH 191500Z AUTO 26004KT 9SM 03/01 A2940 RMK CLD MISG SLP969=
METAR CYLH 191400Z AUTO 25005KT 190V260 SCT060 BKN200 01/01 A2940 RMK WX MISG VIS MISG SLP969=

CYLH - No TAF is issued for this station

Your time UTC time
Weather data provided by Environment Canada and NAV CANADA